createdAt,value
2022-08-16T04:30:31.997Z,21.60
2022-08-16T04:33:27.510Z,21.60
2022-08-16T04:40:01.705Z,21.60
2022-08-16T04:52:04.763Z,21.70
2022-08-16T04:56:02.401Z,21.70
2022-08-16T05:11:51.966Z,21.80
2022-08-16T05:14:45.409Z,21.90
2022-08-16T05:28:22.257Z,21.80
2022-08-16T05:32:33.736Z,21.90
2022-08-16T05:35:32.963Z,21.90
2022-08-16T05:42:46.118Z,22.00
2022-08-16T05:48:34.162Z,22.00
2022-08-16T05:51:13.490Z,22.10
2022-08-16T05:57:34.579Z,22.10
2022-08-16T06:00:10.732Z,22.30
2022-08-16T06:03:02.630Z,22.40
2022-08-16T06:06:00.450Z,22.40
2022-08-16T06:09:44.414Z,22.40
2022-08-16T06:11:38.855Z,22.40
2022-08-16T06:14:17.158Z,22.50
2022-08-16T06:17:05.316Z,22.50
2022-08-16T06:19:44.969Z,22.50
2022-08-16T06:22:38.895Z,22.60
2022-08-16T06:25:11.095Z,22.70
2022-08-16T06:27:57.043Z,22.60
2022-08-16T06:34:57.499Z,22.70
2022-08-16T06:37:21.413Z,22.80
2022-08-16T06:40:03.344Z,22.90
2022-08-16T06:42:47.473Z,22.90
2022-08-16T06:45:32.327Z,23.10
2022-08-16T06:48:12.747Z,23.20
2022-08-16T06:50:50.308Z,23.30
2022-08-16T06:53:21.053Z,23.30
2022-08-16T06:56:00.611Z,23.30
2022-08-16T06:58:41.849Z,23.30
2022-08-16T07:04:11.208Z,23.40
2022-08-16T07:06:43.215Z,23.40
2022-08-16T07:09:16.029Z,23.40
2022-08-16T07:11:51.785Z,23.50
2022-08-16T07:14:30.928Z,23.60
2022-08-16T07:17:00.507Z,23.60
2022-08-16T07:20:30.322Z,23.70
2022-08-16T07:22:38.554Z,23.80
2022-08-16T07:25:22.864Z,23.90
2022-08-16T07:27:51.322Z,24.00
2022-08-16T07:30:39.395Z,24.10
2022-08-16T07:33:51.219Z,24.20
2022-08-16T07:36:08.762Z,24.20
2022-08-16T07:38:43.624Z,24.30
2022-08-16T07:41:13.600Z,24.40
2022-08-16T07:43:51.889Z,24.50
2022-08-16T07:46:48.168Z,24.50
2022-08-16T07:49:24.670Z,24.50
2022-08-16T07:52:43.486Z,24.70
2022-08-16T07:58:36.210Z,24.90
2022-08-16T08:01:53.326Z,24.90
2022-08-16T08:04:51.958Z,25.00
2022-08-16T08:07:20.731Z,25.00
2022-08-16T08:09:57.903Z,25.10
2022-08-16T08:12:35.795Z,25.20
2022-08-16T08:15:15.307Z,25.30
2022-08-16T08:20:58.990Z,25.30
2022-08-16T08:23:29.152Z,25.30
2022-08-16T08:25:56.323Z,25.40
2022-08-16T08:28:29.264Z,25.50
2022-08-16T08:31:03.573Z,25.70
2022-08-16T08:33:36.102Z,25.60
2022-08-16T08:36:07.623Z,25.70
2022-08-16T08:38:43.747Z,25.80
2022-08-16T08:41:15.462Z,26.00
2022-08-16T08:43:50.377Z,26.10
2022-08-16T08:46:21.344Z,26.30
2022-08-16T08:48:59.237Z,26.40
2022-08-16T08:51:31.999Z,26.40
2022-08-16T08:54:07.045Z,26.70
2022-08-16T08:56:37.499Z,27.00
2022-08-16T08:59:20.737Z,27.20
2022-08-16T09:01:57.664Z,27.40
2022-08-16T09:04:54.881Z,27.40
2022-08-16T09:07:25.849Z,27.50
2022-08-16T09:10:06.289Z,27.60
2022-08-16T09:21:41.275Z,27.70
2022-08-16T09:24:35.159Z,27.90
2022-08-16T09:27:01.119Z,27.90
2022-08-16T09:29:45.758Z,28.10
2022-08-16T09:32:28.644Z,28.10
2022-08-16T09:35:10.972Z,28.10
2022-08-16T09:38:00.880Z,28.10
2022-08-16T09:40:43.320Z,28.30
2022-08-16T09:43:46.335Z,28.20
2022-08-16T09:46:44.464Z,28.10
2022-08-16T09:49:08.766Z,28.20
2022-08-16T09:51:39.700Z,28.30
2022-08-16T09:54:09.733Z,28.40
2022-08-16T09:56:53.131Z,28.40
2022-08-16T09:59:31.183Z,28.40
2022-08-16T10:02:26.155Z,28.50
2022-08-16T10:04:57.506Z,28.40
2022-08-16T10:07:44.171Z,28.40
2022-08-16T10:10:30.255Z,28.50
2022-08-16T10:13:47.007Z,28.50
2022-08-16T10:16:15.780Z,28.50
2022-08-16T10:19:00.318Z,28.70
2022-08-16T10:21:33.707Z,29.00
2022-08-16T10:24:09.353Z,29.20
2022-08-16T10:27:18.693Z,29.30
2022-08-16T10:30:01.136Z,29.50
2022-08-16T10:32:28.133Z,29.40
2022-08-16T10:34:58.658Z,29.20
2022-08-16T10:37:32.728Z,29.40
2022-08-16T10:40:06.555Z,29.50
2022-08-16T10:43:02.879Z,29.50
2022-08-16T10:45:42.061Z,29.60
2022-08-16T10:48:27.052Z,29.70
2022-08-16T10:51:01.709Z,29.80
2022-08-16T10:53:33.941Z,29.80
2022-08-16T10:56:55.865Z,29.90
2022-08-16T11:10:20.381Z,30.50
2022-08-16T11:12:52.779Z,30.70
2022-08-16T11:15:20.858Z,30.80
2022-08-16T11:18:49.011Z,30.90
2022-08-16T11:20:40.732Z,30.80
2022-08-16T11:23:12.011Z,30.50
2022-08-16T11:26:16.670Z,30.30
2022-08-16T11:29:13.240Z,30.40
2022-08-16T11:31:54.297Z,30.40
2022-08-16T11:35:03.865Z,30.70
2022-08-16T11:37:27.425Z,30.70
2022-08-16T11:40:19.437Z,30.80
2022-08-16T11:42:47.415Z,30.80
2022-08-16T11:45:24.189Z,30.80
2022-08-16T11:47:54.147Z,30.90
2022-08-16T11:50:25.044Z,31.10
2022-08-16T11:52:53.241Z,31.10
2022-08-16T11:55:44.142Z,30.90
2022-08-16T11:58:12.606Z,30.80
2022-08-16T12:00:56.649Z,31.00
2022-08-16T12:03:45.987Z,31.20
2022-08-16T12:06:25.122Z,31.40
2022-08-16T12:12:20.459Z,31.30
2022-08-16T12:15:02.551Z,31.50
2022-08-16T12:17:38.107Z,31.70
2022-08-16T12:20:30.291Z,32.00
2022-08-16T12:23:21.288Z,32.00
2022-08-16T12:25:58.987Z,32.00
2022-08-16T12:28:44.709Z,32.10
2022-08-16T12:32:38.433Z,32.30
2022-08-16T12:39:16.742Z,32.40
2022-08-16T12:42:12.000Z,32.70
2022-08-16T12:45:10.185Z,32.80
2022-08-16T12:48:31.317Z,32.80
2022-08-16T12:50:56.857Z,32.90
2022-08-16T12:56:52.178Z,32.70
2022-08-16T13:00:26.796Z,32.70
2022-08-16T13:03:15.874Z,33.00
2022-08-16T13:08:54.221Z,33.10
2022-08-16T13:11:58.082Z,33.00
2022-08-16T13:14:55.227Z,33.00
2022-08-16T13:17:30.414Z,33.10
2022-08-16T13:20:44.881Z,32.80
2022-08-16T13:32:59.286Z,32.60
2022-08-16T13:35:55.703Z,32.80
2022-08-16T13:39:32.022Z,33.00
2022-08-16T13:42:34.010Z,33.30
2022-08-16T13:48:48.285Z,33.40
2022-08-16T13:51:25.117Z,33.10
2022-08-16T14:01:19.162Z,33.50
2022-08-16T14:04:08.294Z,33.80
2022-08-16T14:22:52.325Z,33.80
2022-08-16T14:26:54.514Z,34.00
2022-08-16T14:30:04.043Z,33.80
2022-08-16T14:32:34.789Z,34.00
2022-08-16T14:35:48.798Z,33.80
2022-08-16T14:38:29.687Z,33.90
2022-08-16T14:41:10.638Z,33.90
2022-08-16T14:46:56.339Z,34.30
2022-08-16T14:49:40.507Z,34.50
2022-08-16T14:55:16.262Z,34.40
2022-08-16T14:57:52.866Z,34.30
2022-08-16T15:00:27.186Z,34.10
2022-08-16T15:03:04.787Z,34.20
2022-08-16T15:06:17.788Z,34.30
2022-08-16T15:09:19.470Z,34.20
2022-08-16T15:12:33.658Z,34.40
2022-08-16T15:15:12.624Z,34.30
2022-08-16T15:18:35.794Z,34.20
2022-08-16T15:21:09.133Z,34.40
2022-08-16T15:23:45.235Z,34.60
2022-08-16T15:26:42.829Z,34.90
2022-08-16T15:29:38.980Z,35.10
2022-08-16T16:02:31.755Z,38.20
2022-08-16T16:13:01.580Z,39.10
2022-08-16T16:19:09.491Z,38.40
2022-08-16T16:25:30.534Z,37.50
2022-08-16T16:32:00.591Z,38.40
2022-08-16T16:34:50.515Z,38.30
2022-08-16T16:37:19.523Z,37.90
2022-08-16T16:39:46.752Z,37.70
2022-08-16T16:42:29.742Z,38.10
2022-08-16T16:45:01.590Z,38.20
2022-08-16T16:47:41.641Z,37.40
2022-08-16T16:50:10.162Z,36.10
2022-08-16T16:52:44.055Z,34.70
2022-08-16T16:55:14.788Z,33.60
2022-08-16T16:58:03.099Z,32.90
2022-08-16T17:00:38.115Z,32.50
2022-08-16T17:03:17.120Z,32.10
2022-08-16T17:05:51.044Z,31.90
2022-08-16T17:08:27.655Z,31.70
2022-08-16T17:10:56.017Z,31.60
2022-08-16T17:13:25.455Z,31.50
2022-08-16T17:15:53.661Z,31.30
2022-08-16T17:19:14.637Z,31.30
2022-08-16T17:21:21.237Z,31.20
2022-08-16T17:23:58.463Z,31.10
2022-08-16T17:26:56.052Z,31.00
2022-08-16T17:29:30.808Z,30.90
2022-08-16T17:32:02.342Z,30.70
2022-08-16T17:41:07.871Z,30.60
2022-08-16T17:43:54.883Z,30.60
2022-08-16T17:46:50.516Z,30.50
2022-08-16T17:49:32.719Z,30.40
2022-08-16T17:52:02.915Z,30.30
2022-08-16T17:57:50.611Z,30.10
2022-08-16T18:00:30.038Z,30.00
2022-08-16T18:35:57.022Z,28.10
2022-08-16T19:20:57.027Z,26.90
2022-08-16T19:23:34.387Z,26.90
2022-08-16T19:26:11.018Z,26.80
2022-08-16T19:29:08.296Z,26.80
2022-08-16T19:31:51.677Z,26.80
2022-08-16T19:34:19.559Z,26.80
2022-08-16T19:37:06.871Z,26.70
2022-08-16T19:39:37.866Z,26.70
2022-08-16T19:42:47.001Z,26.70
2022-08-16T19:45:23.322Z,26.70
2022-08-16T19:48:08.063Z,26.70
